Orlando, Florida
Traffic Map
Current Weather Conditions
Orlando, Florida
Clear
Clear
84°
Feels Like: 92°
Wind Chill: 84° Ceiling: Unl
Heat Index: 92° Visibility: 10mi
Dew Point: 75° Wind: 15mph
Humidity: 74% Direction: 150° (SSE)
Pressure: 30.04in Gusts: 0mph
Raw Report DataKORL 182353Z 15013KT 10SM CLR 29/24 A3004 RMK AO2 SLP175 T02890239 10350 20289 53002
Traffic Incident Summary
Active as of:
Severity:
Category:
InformationThere was an issue retrieving the traffic information for this location. Please try a different location or try again shortly.
Advertisements